Flight Track Log - Related Links

Times and Time Zones

All times are in EDT time to prevent confusion due to time zone crossing. See the SKW6423 flight status page for this flight to view local times or setup timezone preferences in your user account.

Time Position Orientation Groundspeed Altitude Reporting Facility
EDT Latitude Longitude Course Direction KTS MPH feet Rate Location/Type
Tue 12:16:00 AM 39.3446 -105.1423 215° Southwest  Level Estimated
Tue 12:17:00 AM 39.2583 -105.2199 215° Southwest  Level Estimated
Tue 12:18:00 AM 39.1718 -105.2972 215° Southwest  Level Estimated
Tue 12:19:00 AM 39.0854 -105.3743 215° Southwest  Level Estimated
Tue 12:20:00 AM 38.9989 -105.4513 215° Southwest  Level Estimated
Tue 12:21:00 AM 38.9123 -105.5280 215° Southwest  Level Estimated
Tue 12:22:00 AM 38.8257 -105.6046 215° Southwest  Level Estimated
Tue 12:23:00 AM 38.7391 -105.6810 215° Southwest  Level Estimated
Tue 12:24:00 AM 38.6523 -105.7572 214° Southwest  Level Estimated
Tue 12:25:00 AM 38.5656 -105.8332 214° Southwest  Level Estimated
Tue 12:26:00 AM 38.4788 -105.9090 214° Southwest  Level Estimated
Tue 12:27:00 AM 38.3919 -105.9847 214° Southwest  Level Estimated
Tue 12:28:00 AM 38.3050 -106.0602 214° Southwest  Level Estimated
Tue 12:29:00 AM 38.2180 -106.1355 214° Southwest  Level Estimated
Tue 12:30:00 AM 38.1311 -106.2106 214° Southwest  Level Estimated
Tue 12:31:00 AM 38.0440 -106.2855 214° Southwest  Level Estimated
Tue 12:32:00 AM 37.9569 -106.3603 214° Southwest  Level Estimated
Tue 12:33:00 AM 37.8698 -106.4348 214° Southwest  Level Estimated
Tue 12:34:00 AM 37.7826 -106.5092 214° Southwest  Level Estimated
Tue 12:35:00 AM 37.6953 -106.5835 214° Southwest  Level Estimated
Tue 12:36:00 AM 37.6081 -106.6575 214° Southwest  Level Estimated
Tue 12:37:00 AM 37.5207 -106.7314 214° Southwest  Level Estimated
Tue 12:38:00 AM 37.4333 -106.8051 214° Southwest  Level Estimated
Tue 12:39:00 AM 37.3459 -106.8786 214° Southwest  Level Estimated
Tue 12:40:00 AM 37.2584 -106.9520 214° Southwest  Level Estimated
Tue 12:41:00 AM 37.1709 -107.0252 214° Southwest  Level Estimated
Tue 12:42:00 AM 37.0834 -107.0982 214° Southwest  Level Estimated
Tue 12:43:00 AM 36.9958 -107.1710 214° Southwest  Level Estimated
Tue 12:44:00 AM 36.9081 -107.2437 214° Southwest  Level Estimated
Tue 12:45:00 AM 36.8204 -107.3162 214° Southwest  Level Estimated
Tue 12:46:00 AM 36.7327 -107.3886 213° Southwest  Level Estimated
Tue 12:47:00 AM 36.6449 -107.4608 213° Southwest  Level Estimated
Tue 12:48:00 AM 36.5571 -107.5328 213° Southwest  Level Estimated
Tue 12:49:00 AM 36.4692 -107.6047 213° Southwest  Level Estimated
Tue 12:50:00 AM 36.3813 -107.6764 213° Southwest  Level Estimated
Tue 12:51:00 AM 36.2934 -107.7479 213° Southwest  Level Estimated
Tue 12:52:00 AM 36.2054 -107.8193 213° Southwest  Level Estimated
Tue 12:53:00 AM 36.1174 -107.8905 213° Southwest  Level Estimated
Tue 12:54:00 AM 36.0293 -107.9615 213° Southwest  Level Estimated
Tue 12:55:00 AM 35.9412 -108.0324 213° Southwest  Level Estimated
Tue 12:56:00 AM 35.8530 -108.1031 213° Southwest  Level Estimated
Tue 12:57:00 AM 35.7648 -108.1737 213° Southwest  Level Estimated
Tue 12:58:00 AM 35.6766 -108.2441 213° Southwest  Level Estimated
Tue 12:59:00 AM 35.5883 -108.3144 213° Southwest  Level Estimated
Tue 01:00:00 AM 35.5000 -108.3845 213° Southwest  Level Estimated
Tue 01:01:00 AM 35.4116 -108.4545 213° Southwest  Level Estimated
Tue 01:02:00 AM 35.3232 -108.5243 213° Southwest  Level Estimated
Tue 01:03:00 AM 35.2347 -108.5939 213° Southwest  Level Estimated
Tue 01:04:00 AM 35.1462 -108.6635 213° Southwest  Level Estimated
Tue 01:05:00 AM 35.0577 -108.7328 213° Southwest  Level Estimated
Tue 01:06:00 AM 34.9692 -108.8020 213° Southwest  Level Estimated
Tue 01:07:00 AM 34.8806 -108.8710 213° Southwest  Level Estimated
Tue 01:08:00 AM 34.7919 -108.9399 213° Southwest  Level Estimated
Tue 01:09:00 AM 34.7032 -109.0087 213° Southwest  Level Estimated
Tue 01:10:00 AM 34.6145 -109.0773 212° Southwest  Level Estimated
Tue 01:11:00 AM 34.5257 -109.1458 212° Southwest  Level Estimated
Tue 01:12:00 AM 34.4370 -109.2141 212° Southwest  Level Estimated
Tue 01:13:00 AM 34.3481 -109.2822 212° Southwest  Level Estimated
Tue 01:14:00 AM 34.2593 -109.3503 212° Southwest  Level Estimated
Tue 01:15:00 AM 34.1703 -109.4182 212° Southwest  Level Estimated
Tue 01:16:00 AM 34.0814 -109.4859 212° Southwest  Level Estimated
Tue 01:17:00 AM 33.9924 -109.5535 212° Southwest  Level Estimated
Tue 01:18:00 AM 33.9034 -109.6209 212° Southwest  Level Estimated
Tue 01:19:00 AM 33.8143 -109.6883 212° Southwest  Level Estimated
Tue 01:20:00 AM 33.7252 -109.7554 212° Southwest  Level Estimated
Tue 01:21:00 AM 33.6361 -109.8225 212° Southwest  Level Estimated
Tue 01:22:00 AM 33.5469 -109.8894 212° Southwest  Level Estimated
Tue 01:23:00 AM 33.4577 -109.9561 212° Southwest  Level Estimated
Tue 01:24:00 AM 33.3685 -110.0227 212° Southwest  Level Estimated
Tue 01:25:00 AM 33.2792 -110.0892 212° Southwest  Level Estimated
Tue 01:26:00 AM 33.1899 -110.1556 212° Southwest  Level Estimated
Tue 01:27:00 AM 33.1006 -110.2218 212° Southwest  Level Estimated
Tue 01:28:00 AM 33.0112 -110.2879 212° Southwest  Level Estimated
Tue 01:29:00 AM 32.9218 -110.3538 212° Southwest  Level Estimated
Tue 01:30:00 AM 32.8323 -110.4196 212° Southwest  Level Estimated
Tue 01:31:00 AM 32.7429 -110.4853 212° Southwest  Level Estimated
Tue 01:32:00 AM 32.6533 -110.5508 212° Southwest  Level Estimated
Tue 01:33:00 AM 32.5638 -110.6163 212° Southwest  Level Estimated
Tue 01:34:00 AM 32.4742 -110.6816 212° Southwest  Level Estimated
Tue 01:35:00 AM 32.3846 -110.7467 212° Southwest  Level Estimated
Tue 01:36:00 AM 32.2949 -110.8117 212° Southwest  Level Estimated
Tue 01:37:00 AM 32.2052 -110.8766 211° Southwest  Level Estimated
Tue 01:38:00 AM 32.1161 -110.9410 211° Southwest  Level Estimated
Tue 01:39:00 AM 32.1161 -110.9410 157° South  Level Estimated
Tue 01:40:00 AM 32.1161 -110.9410 157° South  Level Estimated
Tue 01:41:00 AM 32.1161 -110.9410 157° South  Level Estimated
Tue 01:42:00 AM 32.1161 -110.9410 157° South  Level Estimated
Tue 01:43:00 AM 32.1161 -110.9410 157° South  Level Estimated
Tue 01:44:00 AM 32.1161 -110.9410 157° South  Level Estimated
Tue 01:45:00 AM 32.1161 -110.9410 157° South  Level Estimated
Tue 01:46:00 AM 32.1161 -110.9410 157° South  Level Estimated
Tue 01:47:00 AM 32.1161 -110.9410 157° South  Level Estimated
Tue 01:48:00 AM 32.1161 -110.9410 157° South  Level Estimated
Tue 01:49:00 AM 32.1161 -110.9410 157° South  Level Estimated
Tue 01:50:00 AM 32.1161 -110.9410 157° South  Level Estimated
Tue 01:51:00 AM 32.1161 -110.9410 157° South  Level Estimated
Tue 01:52:00 AM 32.1161 -110.9410 157° South  Level Estimated
Tue 01:53:00 AM 32.1161 -110.9410 157° South  Level Estimated
Tue 01:54:00 AM 32.1161 -110.9410 157° South  Level Estimated

Login

Don't have an account? Register now (free) for customized features, flight alerts, and more!